createdAt,value
2023-01-19T06:38:45.031Z,0.857143
2023-01-19T06:39:45.073Z,0.857143
2023-01-19T06:40:45.109Z,0.857143
2023-01-19T06:41:45.148Z,1.71429
2023-01-19T06:42:45.168Z,1.71429
2023-01-19T06:43:45.198Z,2.5
2023-01-19T06:44:45.236Z,2.5
2023-01-19T06:45:46.091Z,3.35714
2023-01-19T06:46:45.318Z,3.35714
2023-01-19T06:47:45.357Z,4.21429
2023-01-19T06:48:45.410Z,5
2023-01-19T06:49:45.419Z,5.85714
2023-01-19T06:50:45.445Z,7.5
2023-01-19T06:51:45.505Z,8.35714
2023-01-19T06:52:45.521Z,9.21429
2023-01-19T06:53:45.573Z,10.8571
2023-01-19T06:54:45.644Z,12.5
2023-01-19T06:55:45.647Z,14.2143
2023-01-19T06:56:45.715Z,15.8571
2023-01-19T06:57:45.717Z,17.5
2023-01-19T06:58:45.761Z,20
2023-01-19T06:59:45.815Z,21.7143
2023-01-19T07:00:45.884Z,24.2143
2023-01-19T07:01:46.021Z,26.7143
2023-01-19T07:02:45.943Z,30
2023-01-19T07:03:46.966Z,32.5
2023-01-19T07:04:45.970Z,35.8571
2023-01-19T07:05:45.994Z,39.2143
2023-01-19T07:06:46.028Z,43.3571
2023-01-19T07:07:46.069Z,46.7143
2023-01-19T07:08:46.099Z,50.8571
2023-01-19T07:09:46.137Z,55.8571
2023-01-19T07:11:24.659Z,60
2023-01-19T07:11:46.210Z,65
2023-01-19T07:12:46.269Z,70
2023-01-19T07:13:46.281Z,75
2023-01-19T07:14:46.330Z,80
2023-01-19T07:15:46.358Z,85.8571
2023-01-19T07:16:46.410Z,92.5
2023-01-19T07:17:46.427Z,98.3571
2023-01-19T07:18:46.461Z,106.714
2023-01-19T07:19:46.525Z,113.357
2023-01-19T07:20:46.553Z,121.714
2023-01-19T07:21:46.575Z,129.214
2023-01-19T07:22:46.648Z,137.5
2023-01-19T07:23:46.664Z,145
2023-01-19T07:24:46.688Z,151.714
2023-01-19T07:25:46.720Z,158.357
2023-01-19T07:26:46.760Z,164.214
2023-01-19T07:27:46.793Z,170.857
2023-01-19T07:28:47.495Z,179.214
2023-01-19T07:29:46.846Z,184.214
2023-01-19T07:30:46.954Z,185.857
2023-01-19T07:31:47.115Z,191.714
2023-01-19T07:32:46.935Z,202.5
2023-01-19T07:33:46.978Z,211.714
2023-01-19T07:34:47.009Z,218.357
2023-01-19T07:35:47.046Z,227.5
2023-01-19T07:36:47.079Z,238.357
2023-01-19T07:37:47.125Z,246.714
2023-01-19T07:38:47.152Z,253.357
2023-01-19T07:39:47.184Z,261.714
2023-01-19T07:40:47.217Z,271.714
2023-01-19T07:41:47.250Z,279.214
2023-01-19T07:42:47.278Z,287.5
2023-01-19T07:43:47.315Z,296.714
2023-01-19T07:44:47.350Z,311.714
2023-01-19T07:45:47.420Z,331.714
2023-01-19T07:46:47.421Z,345.857
2023-01-19T07:47:47.462Z,345
2023-01-19T07:48:47.500Z,347.5
2023-01-19T07:49:47.549Z,353.357
2023-01-19T07:50:47.580Z,355.857
2023-01-19T07:51:47.636Z,360
2023-01-19T07:52:47.635Z,362.5
2023-01-19T07:53:47.683Z,360.857
2023-01-19T07:54:47.711Z,360
2023-01-19T07:55:47.735Z,363.357
2023-01-19T07:56:47.761Z,370
2023-01-19T07:57:47.801Z,375.857
2023-01-19T07:58:47.832Z,382.5
2023-01-19T07:59:47.935Z,389.214
2023-01-19T08:00:47.902Z,395.857
2023-01-19T08:01:48.057Z,400.857
2023-01-19T08:02:47.954Z,405
2023-01-19T08:03:47.995Z,412.5
2023-01-19T08:04:48.079Z,421.714
2023-01-19T08:05:48.065Z,430.857
2023-01-19T08:06:48.107Z,437.5
2023-01-19T08:07:48.138Z,441.714
2023-01-19T08:08:48.177Z,444.214
2023-01-19T08:09:48.223Z,451.714
2023-01-19T08:10:48.251Z,473.357
2023-01-19T08:11:48.311Z,504.214
2023-01-19T08:12:48.317Z,560
2023-01-19T08:13:48.360Z,600.857
2023-01-19T08:14:48.390Z,665
2023-01-19T08:15:48.497Z,683.357
2023-01-19T08:16:48.463Z,682.5
2023-01-19T08:17:48.495Z,739.214
2023-01-19T08:18:48.526Z,724.214
2023-01-19T08:19:48.557Z,653.357
2023-01-19T08:20:48.607Z,785
2023-01-19T08:21:48.636Z,871.714
2023-01-19T08:22:48.666Z,874.214
2023-01-19T08:23:48.749Z,865.857
2023-01-19T08:24:50.380Z,762.5
2023-01-19T08:25:48.802Z,710
2023-01-19T08:26:48.795Z,727.5
2023-01-19T08:27:48.826Z,775
2023-01-19T08:28:48.890Z,728.357
2023-01-19T08:29:48.901Z,742.5
2023-01-19T08:30:49.072Z,833.357
2023-01-19T08:31:49.090Z,950.857
2023-01-19T08:32:49.002Z,966.714
2023-01-19T08:33:49.038Z,897.5
2023-01-19T08:34:49.080Z,830
2023-01-19T08:35:49.122Z,718.357
2023-01-19T08:36:49.152Z,646.714
2023-01-19T08:37:49.187Z,612.5
2023-01-19T08:38:49.224Z,624.214
2023-01-19T08:39:49.262Z,682.5
2023-01-19T08:40:49.292Z,760.857
2023-01-19T08:41:49.333Z,762.5
2023-01-19T08:42:49.365Z,732.5
2023-01-19T08:43:49.399Z,690.857
2023-01-19T08:44:57.739Z,635.857
2023-01-19T08:45:49.466Z,580.857
2023-01-19T08:46:49.502Z,570.857
2023-01-19T08:47:49.597Z,570.857
2023-01-19T08:48:49.581Z,573.357
2023-01-19T08:49:49.608Z,576.714
2023-01-19T08:50:49.640Z,583.357
2023-01-19T08:51:49.678Z,595
2023-01-19T08:52:49.711Z,608.357
2023-01-19T08:53:49.750Z,630
2023-01-19T08:54:49.778Z,707.5
2023-01-19T08:55:49.842Z,864.214
2023-01-19T08:56:49.855Z,1120.86
2023-01-19T08:57:49.886Z,1266.71
2023-01-19T08:59:03.474Z,1271.71
2023-01-19T08:59:49.945Z,1125
2023-01-19T09:00:50.045Z,1029.21
2023-01-19T09:01:50.214Z,907.5
2023-01-19T09:02:50.090Z,891.714
2023-01-19T09:03:50.083Z,937.5
2023-01-19T09:04:50.114Z,1069.21
2023-01-19T09:05:50.142Z,1139.21
2023-01-19T09:06:50.179Z,1217.5
2023-01-19T09:07:50.209Z,1226.71
2023-01-19T09:08:50.242Z,1276.71
2023-01-19T09:09:50.280Z,1334.21
2023-01-19T09:10:50.322Z,1297.5
2023-01-19T09:11:50.359Z,1159.21
2023-01-19T09:12:50.400Z,920.857
2023-01-19T09:13:50.442Z,841.714
2023-01-19T09:14:50.522Z,827.5
2023-01-19T09:15:50.550Z,830.857
2023-01-19T09:16:50.532Z,824.214
2023-01-19T09:17:50.571Z,791.714
2023-01-19T09:18:50.607Z,746.714
2023-01-19T09:19:50.641Z,714.214
2023-01-19T09:20:50.669Z,707.5
2023-01-19T09:21:50.710Z,700
2023-01-19T09:22:50.747Z,687.5
2023-01-19T09:23:50.790Z,680
2023-01-19T09:24:50.823Z,676.714
2023-01-19T09:25:50.872Z,683.357
2023-01-19T09:26:50.895Z,687.5
2023-01-19T09:27:50.920Z,681.714
2023-01-19T09:28:50.950Z,671.714
2023-01-19T09:29:50.988Z,660
2023-01-19T09:30:51.143Z,645
2023-01-19T09:31:51.082Z,643.357
2023-01-19T09:32:51.104Z,641.714
2023-01-19T09:33:51.127Z,642.5
2023-01-19T09:34:51.169Z,641.714
2023-01-19T09:35:51.203Z,637.5
2023-01-19T09:36:51.235Z,640.857
2023-01-19T09:37:51.270Z,641.714
2023-01-19T09:38:51.305Z,638.357
2023-01-19T09:39:51.386Z,636.714
2023-01-19T09:40:51.360Z,633.357
2023-01-19T09:41:51.393Z,635
2023-01-19T09:42:51.439Z,636.714
2023-01-19T09:43:51.473Z,638.357
2023-01-19T09:44:51.515Z,633.357
2023-01-19T09:45:51.545Z,633.357
2023-01-19T09:46:51.579Z,633.357
2023-01-19T09:47:51.606Z,635.857
2023-01-19T09:48:51.640Z,636.714
2023-01-19T09:49:51.675Z,633.357
2023-01-19T09:50:51.708Z,634.214
2023-01-19T09:51:51.746Z,631.714
2023-01-19T09:52:51.776Z,625
2023-01-19T09:53:51.886Z,625.857
2023-01-19T09:54:51.847Z,626.714
2023-01-19T09:55:51.879Z,630.857
2023-01-19T09:56:52.957Z,630.857
2023-01-19T09:57:51.974Z,635.857
2023-01-19T09:58:51.967Z,640.857
2023-01-19T09:59:52.006Z,637.5
2023-01-19T10:00:52.201Z,631.714
2023-01-19T10:01:52.161Z,633.357
2023-01-19T10:02:52.223Z,620
2023-01-19T10:03:52.136Z,606.714
2023-01-19T10:04:52.166Z,600
2023-01-19T10:05:52.209Z,603.357
2023-01-19T10:06:52.249Z,603.357
2023-01-19T10:07:52.278Z,605
2023-01-19T10:08:52.310Z,617.5
2023-01-19T10:09:52.343Z,625.857
2023-01-19T10:10:52.392Z,632.5
2023-01-19T10:11:53.478Z,625.857
2023-01-19T10:12:52.465Z,627.5
2023-01-19T10:13:52.514Z,619.214
2023-01-19T10:14:52.531Z,625.857
2023-01-19T10:15:52.619Z,626.714
2023-01-19T10:16:52.608Z,629.214
2023-01-19T10:17:52.638Z,630.857
2023-01-19T10:18:52.688Z,625.857
2023-01-19T10:19:52.713Z,629.214
2023-01-19T10:20:52.737Z,632.5
2023-01-19T10:21:52.769Z,636.714
2023-01-19T10:22:52.860Z,635
2023-01-19T10:23:52.846Z,632.5
2023-01-19T10:24:52.887Z,633.357
2023-01-19T10:25:52.955Z,640
2023-01-19T10:26:52.964Z,633.357
2023-01-19T10:27:53.017Z,634.214
2023-01-19T10:28:53.040Z,635
2023-01-19T10:29:53.085Z,636.714
2023-01-19T10:30:53.103Z,638.357
2023-01-19T10:31:53.226Z,635
2023-01-19T10:32:53.151Z,635
2023-01-19T10:33:53.227Z,634.214
2023-01-19T10:34:53.284Z,635.857
2023-01-19T10:35:53.308Z,633.357
2023-01-19T10:36:53.297Z,632.5
2023-01-19T10:37:53.343Z,630.857
2023-01-19T10:38:53.367Z,631.714
2023-01-19T10:39:53.408Z,629.214
2023-01-19T10:40:53.437Z,618.357
2023-01-19T10:41:53.488Z,620.857
2023-01-19T10:42:53.553Z,622.5
2023-01-19T10:43:53.586Z,611.714
2023-01-19T10:44:53.593Z,600.857
2023-01-19T10:45:53.655Z,587.5
2023-01-19T10:46:53.654Z,582.5
2023-01-19T10:47:53.695Z,585
2023-01-19T10:48:53.818Z,590
2023-01-19T10:49:53.781Z,588.357
2023-01-19T10:50:53.813Z,573.357
2023-01-19T10:51:53.927Z,563.357
2023-01-19T10:52:53.891Z,560
2023-01-19T10:53:53.962Z,554.214
2023-01-19T10:54:53.939Z,545.857
2023-01-19T10:55:54.053Z,556.714
2023-01-19T10:56:54.025Z,546.714
2023-01-19T10:57:54.128Z,546.714
2023-01-19T10:58:54.082Z,565
2023-01-19T10:59:54.119Z,591.714
2023-01-19T11:00:54.344Z,614.214
2023-01-19T11:01:54.356Z,628.357
2023-01-19T11:02:54.354Z,640
2023-01-19T11:03:54.294Z,645
2023-01-19T11:04:54.295Z,649.214
2023-01-19T11:05:54.330Z,652.5
2023-01-19T11:06:54.365Z,659.214
2023-01-19T11:07:54.414Z,660.857
2023-01-19T11:08:54.484Z,660.857
2023-01-19T11:09:54.460Z,657.5
2023-01-19T11:10:54.518Z,655
2023-01-19T11:11:54.535Z,650
2023-01-19T11:12:54.568Z,645
2023-01-19T11:13:54.637Z,640.857
2023-01-19T11:14:54.640Z,635
2023-01-19T11:15:54.664Z,633.357
2023-01-19T11:16:54.705Z,633.357
2023-01-19T11:17:54.734Z,631.714
2023-01-19T11:18:54.769Z,638.357
2023-01-19T11:19:54.799Z,635
2023-01-19T11:20:54.834Z,630.857
2023-01-19T11:21:54.908Z,631.714
2023-01-19T11:22:54.902Z,633.357
2023-01-19T11:23:54.933Z,634.214
2023-01-19T11:24:54.960Z,632.5
2023-01-19T11:25:55.009Z,633.357
2023-01-19T11:26:55.071Z,629.214
2023-01-19T11:27:55.070Z,627.5
2023-01-19T11:28:55.098Z,621.714
2023-01-19T11:29:55.132Z,622.5
2023-01-19T11:30:55.254Z,620.857
2023-01-19T11:31:55.250Z,616.714
2023-01-19T11:32:55.245Z,616.714
2023-01-19T11:33:55.302Z,615
2023-01-19T11:34:55.314Z,612.5
2023-01-19T11:35:55.349Z,612.5
2023-01-19T11:36:55.380Z,609.214
2023-01-19T11:37:55.419Z,610.857
2023-01-19T11:38:55.471Z,612.5
2023-01-19T11:39:55.496Z,608.357
2023-01-19T11:40:55.543Z,603.357
2023-01-19T11:41:55.572Z,602.5
2023-01-19T11:42:55.604Z,603.357
2023-01-19T11:43:55.648Z,605
2023-01-19T11:44:55.685Z,605.857
2023-01-19T11:45:55.738Z,605
2023-01-19T11:46:55.749Z,600.857
2023-01-19T11:47:55.828Z,602.5
2023-01-19T11:48:55.822Z,601.714
2023-01-19T11:49:55.857Z,599.214
2023-01-19T11:50:55.884Z,599.214
2023-01-19T11:51:55.925Z,598.357
2023-01-19T11:52:55.970Z,600
2023-01-19T11:53:55.990Z,600.857
2023-01-19T11:54:56.028Z,600
2023-01-19T11:55:56.061Z,600
2023-01-19T11:56:56.091Z,602.5
2023-01-19T11:57:56.130Z,606.714
2023-01-19T11:58:56.167Z,605.857
2023-01-19T11:59:56.205Z,600.857
2023-01-19T12:00:56.262Z,601.714
2023-01-19T12:01:56.291Z,603.357
2023-01-19T12:02:56.307Z,609.214
2023-01-19T12:03:56.360Z,603.357
2023-01-19T12:04:56.389Z,598.357
2023-01-19T12:05:56.419Z,596.714
2023-01-19T12:06:56.464Z,599.214
2023-01-19T12:07:56.490Z,598.357
2023-01-19T12:08:56.565Z,597.5
2023-01-19T12:09:56.567Z,602.5
2023-01-19T12:10:56.593Z,600
2023-01-19T12:11:56.644Z,594.214
2023-01-19T12:12:56.656Z,595
2023-01-19T12:13:56.714Z,595.857
2023-01-19T12:14:56.729Z,595.857
2023-01-19T12:15:56.771Z,594.214
2023-01-19T12:16:56.797Z,593.357
2023-01-19T12:17:56.854Z,590.857
2023-01-19T12:18:56.877Z,591.714
2023-01-19T12:19:56.897Z,591.714
2023-01-19T12:20:56.984Z,590.857
2023-01-19T12:21:56.983Z,589.214
2023-01-19T12:22:59.489Z,590
2023-01-19T12:23:57.067Z,590.857
2023-01-19T12:24:57.071Z,590
2023-01-19T12:25:57.120Z,590
2023-01-19T12:26:57.174Z,587.5
2023-01-19T12:27:57.186Z,587.5
2023-01-19T12:28:57.233Z,586.714
2023-01-19T12:29:57.257Z,590
2023-01-19T12:30:57.391Z,588.357
2023-01-19T12:31:57.533Z,587.5
2023-01-19T12:32:57.367Z,588.357
2023-01-19T12:33:57.405Z,588.357
2023-01-19T12:34:57.446Z,585
2023-01-19T12:35:57.502Z,582.5
2023-01-19T12:36:57.517Z,580
2023-01-19T12:37:57.549Z,579.214
2023-01-19T12:38:57.588Z,583.357
2023-01-19T12:39:57.623Z,583.357
2023-01-19T12:40:57.661Z,586.714
2023-01-19T12:41:57.722Z,586.714
2023-01-19T12:42:57.727Z,595
2023-01-19T12:43:57.764Z,595
2023-01-19T12:44:57.803Z,586.714
2023-01-19T12:45:57.883Z,581.714
2023-01-19T12:46:57.924Z,576.714
2023-01-19T12:47:57.911Z,571.714
2023-01-19T12:48:57.948Z,576.714
2023-01-19T12:49:57.975Z,580.857
2023-01-19T12:50:58.013Z,580
2023-01-19T12:51:58.073Z,575
2023-01-19T12:52:58.093Z,577.5
2023-01-19T12:53:58.126Z,577.5
2023-01-19T12:54:58.162Z,577.5
2023-01-19T12:55:58.210Z,574.214
2023-01-19T12:56:58.249Z,582.5
2023-01-19T12:57:58.301Z,573.357
2023-01-19T12:58:58.332Z,570
2023-01-19T12:59:58.374Z,570
2023-01-19T13:00:58.477Z,569.214
2023-01-19T13:01:58.483Z,570.857
2023-01-19T13:02:58.546Z,577.5
2023-01-19T13:03:58.494Z,578.357
2023-01-19T13:04:58.540Z,574.214
2023-01-19T13:05:58.589Z,572.5
2023-01-19T13:06:58.593Z,570.857
2023-01-19T13:07:58.640Z,575
2023-01-19T13:08:58.674Z,577.5
2023-01-19T13:09:58.697Z,574.214
2023-01-19T13:10:58.743Z,571.714
2023-01-19T13:12:00.995Z,572.5
2023-01-19T13:12:58.808Z,569.214
2023-01-19T13:13:58.856Z,565.857
2023-01-19T13:14:59.174Z,580
2023-01-19T13:15:58.950Z,680
2023-01-19T13:16:58.960Z,725.857
2023-01-19T13:17:58.991Z,664.214
2023-01-19T13:18:59.030Z,665.857
2023-01-19T13:19:59.102Z,705.857
2023-01-19T13:20:59.091Z,670.857
2023-01-19T13:21:59.131Z,663.357
2023-01-19T13:22:59.157Z,700
2023-01-19T13:23:59.195Z,705
2023-01-19T13:24:59.413Z,812.5
2023-01-19T13:25:59.263Z,875
2023-01-19T13:26:59.294Z,935.857
2023-01-19T13:27:59.340Z,871.714
2023-01-19T13:28:59.360Z,733.357
2023-01-19T13:29:59.535Z,758.357
2023-01-19T13:30:59.634Z,715.857
2023-01-19T13:31:59.462Z,649.214
2023-01-19T13:32:59.498Z,693.357
2023-01-19T13:33:59.535Z,766.714
2023-01-19T13:34:59.820Z,709.214
2023-01-19T13:35:59.605Z,669.214
2023-01-19T13:36:59.633Z,615.857
2023-01-19T13:37:59.675Z,627.5
2023-01-19T13:38:59.703Z,650
2023-01-19T13:39:59.926Z,657.5
2023-01-19T13:40:59.782Z,679.214
2023-01-19T13:41:59.797Z,710.857
2023-01-19T13:42:59.842Z,768.357
2023-01-19T13:43:59.874Z,825
2023-01-19T13:44:59.904Z,816.714
2023-01-19T13:46:00.033Z,753.357
2023-01-19T13:46:59.980Z,665.857
2023-01-19T13:48:00.011Z,598.357
2023-01-19T13:49:00.071Z,590
2023-01-19T13:50:00.452Z,634.214
2023-01-19T13:51:00.108Z,714.214
2023-01-19T13:52:00.142Z,656.714
2023-01-19T13:53:00.191Z,586.714
2023-01-19T13:54:00.228Z,555
2023-01-19T13:55:02.895Z,578.357
2023-01-19T13:56:00.292Z,581.714
2023-01-19T13:57:00.366Z,583.357
2023-01-19T13:58:00.366Z,571.714
2023-01-19T13:59:00.416Z,516.714
2023-01-19T14:00:00.426Z,507.5
2023-01-19T14:01:00.602Z,517.5
2023-01-19T14:02:00.654Z,470.857
2023-01-19T14:03:00.763Z,435.857
2023-01-19T14:04:00.580Z,426.714
2023-01-19T14:05:00.619Z,401.714
2023-01-19T14:06:00.757Z,390.857
2023-01-19T14:07:00.719Z,428.357
2023-01-19T14:08:00.737Z,464.214
2023-01-19T14:09:00.796Z,463.357
2023-01-19T14:10:00.779Z,431.714
2023-01-19T14:11:00.836Z,381.714
2023-01-19T14:12:00.870Z,392.5
2023-01-19T14:13:00.907Z,360.857
2023-01-19T14:14:00.927Z,322.5
2023-01-19T14:15:00.963Z,320.857
2023-01-19T14:16:01.030Z,324.214
2023-01-19T14:17:01.041Z,305
2023-01-19T14:18:01.069Z,311.714
2023-01-19T14:19:01.122Z,330
2023-01-19T14:20:01.228Z,325.857
2023-01-19T14:21:01.211Z,310
2023-01-19T14:22:01.214Z,293.357
2023-01-19T14:23:01.242Z,278.357
2023-01-19T14:24:01.286Z,278.357
2023-01-19T14:25:01.328Z,279.214
2023-01-19T14:26:01.369Z,260.857
2023-01-19T14:27:01.401Z,244.214
2023-01-19T14:28:01.434Z,226.714
2023-01-19T14:29:01.475Z,230
2023-01-19T14:30:01.540Z,238.357
2023-01-19T14:31:01.704Z,235
2023-01-19T14:32:01.594Z,228.357
2023-01-19T14:33:01.616Z,229.214
2023-01-19T14:34:01.635Z,248.357
2023-01-19T14:35:01.699Z,265
2023-01-19T14:36:01.721Z,251.714
2023-01-19T14:37:01.741Z,230
2023-01-19T14:38:01.812Z,209.214
2023-01-19T14:39:01.845Z,179.214
2023-01-19T14:40:01.854Z,167.5
2023-01-19T14:41:01.885Z,179.214
2023-01-19T14:42:01.926Z,181.714
2023-01-19T14:43:01.962Z,155
2023-01-19T14:44:01.999Z,142.5
2023-01-19T14:45:02.041Z,133.357
2023-01-19T14:46:02.084Z,132.5
2023-01-19T14:47:02.116Z,150
2023-01-19T14:48:02.157Z,140
2023-01-19T14:49:02.201Z,135.857
2023-01-19T14:50:02.216Z,130.857
2023-01-19T14:51:03.667Z,119.214
2023-01-19T14:52:02.286Z,118.357
2023-01-19T14:53:02.308Z,117.5
2023-01-19T14:54:02.347Z,109.214
2023-01-19T14:55:02.375Z,107.5
2023-01-19T14:56:02.422Z,108.357
2023-01-19T14:57:02.445Z,107.5
2023-01-19T14:58:02.488Z,110.857
2023-01-19T14:59:02.538Z,108.357
2023-01-19T15:00:02.623Z,95
2023-01-19T15:01:02.771Z,95.8571
2023-01-19T15:02:02.786Z,91.7143
2023-01-19T15:03:02.665Z,88.3571
2023-01-19T15:04:02.695Z,90.8571
2023-01-19T15:05:02.730Z,100
2023-01-19T15:06:04.362Z,101.714
2023-01-19T15:07:02.809Z,96.7143
2023-01-19T15:08:02.836Z,89.2143
2023-01-19T15:09:02.866Z,89.2143
2023-01-19T15:10:02.907Z,86.7143
2023-01-19T15:11:02.937Z,78.3571
2023-01-19T15:12:02.980Z,70
2023-01-19T15:13:03.013Z,65
2023-01-19T15:14:03.054Z,62.5
2023-01-19T15:15:03.095Z,60.8571
2023-01-19T15:16:03.139Z,63.3571
2023-01-19T15:17:03.144Z,62.5
2023-01-19T15:18:03.179Z,55
2023-01-19T15:19:03.229Z,50
2023-01-19T15:20:03.253Z,42.5
2023-01-19T15:21:03.292Z,32.5
2023-01-19T15:22:03.362Z,29.2143
2023-01-19T15:23:03.363Z,32.5
2023-01-19T15:24:03.390Z,30
2023-01-19T15:25:03.426Z,24.2143
2023-01-19T15:26:03.463Z,25
2023-01-19T15:27:03.490Z,25
2023-01-19T15:28:03.536Z,23.3571
2023-01-19T15:29:03.586Z,20
2023-01-19T15:30:03.613Z,19.2143
2023-01-19T15:31:03.655Z,22.5
2023-01-19T15:32:03.702Z,20
2023-01-19T15:33:03.725Z,17.5
2023-01-19T15:34:03.773Z,15.8571
2023-01-19T15:35:03.816Z,14.2143
2023-01-19T15:36:03.846Z,12.5
2023-01-19T15:37:03.874Z,10
2023-01-19T15:38:03.913Z,8.35714
2023-01-19T15:39:03.957Z,7.5
2023-01-19T15:40:03.995Z,7.5
2023-01-19T15:41:04.045Z,5.85714
2023-01-19T15:42:04.076Z,5.85714
2023-01-19T15:43:04.115Z,5
2023-01-19T15:44:04.142Z,4.21429
2023-01-19T15:45:04.179Z,4.21429
2023-01-19T15:46:04.258Z,3.35714
2023-01-19T15:47:04.247Z,3.35714
2023-01-19T15:48:04.274Z,2.5
2023-01-19T15:49:04.322Z,2.5
2023-01-19T15:50:04.337Z,2.5
2023-01-19T15:51:04.373Z,1.71429
2023-01-19T15:52:04.418Z,1.71429
2023-01-19T15:53:04.441Z,0.857143
2023-01-19T15:54:04.491Z,0.857143
2023-01-19T15:55:04.524Z,0.857143
